sensor_id;sensor_type;location;lat;lon;timestamp;P1;durP1;ratioP1;P2;durP2;ratioP2
77571;SDS011;67214;47.454;18.966;2023-04-25T00:01:21;2.12;;;1.47;;
77571;SDS011;67214;47.454;18.966;2023-04-25T00:03:49;2.22;;;1.60;;
77571;SDS011;67214;47.454;18.966;2023-04-25T00:06:16;3.27;;;1.75;;
77571;SDS011;67214;47.454;18.966;2023-04-25T00:08:44;3.72;;;1.80;;
77571;SDS011;67214;47.454;18.966;2023-04-25T00:11:11;2.10;;;1.45;;
77571;SDS011;67214;47.454;18.966;2023-04-25T00:13:39;2.45;;;1.67;;
77571;SDS011;67214;47.454;18.966;2023-04-25T00:16:07;2.98;;;1.98;;
77571;SDS011;67214;47.454;18.966;2023-04-25T00:18:34;2.45;;;1.77;;
77571;SDS011;67214;47.454;18.966;2023-04-25T00:21:02;2.87;;;2.10;;
77571;SDS011;67214;47.454;18.966;2023-04-25T00:23:31;3.67;;;1.77;;
77571;SDS011;67214;47.454;18.966;2023-04-25T00:25:58;4.30;;;1.98;;
77571;SDS011;67214;47.454;18.966;2023-04-25T00:28:26;3.50;;;2.00;;
77571;SDS011;67214;47.454;18.966;2023-04-25T00:30:53;3.12;;;1.67;;
77571;SDS011;67214;47.454;18.966;2023-04-25T00:33:21;2.65;;;1.90;;
77571;SDS011;67214;47.454;18.966;2023-04-25T00:35:48;2.20;;;1.70;;
77571;SDS011;67214;47.454;18.966;2023-04-25T00:38:15;3.77;;;1.92;;
77571;SDS011;67214;47.454;18.966;2023-04-25T00:40:43;3.45;;;2.15;;
77571;SDS011;67214;47.454;18.966;2023-04-25T00:43:11;4.35;;;3.27;;
77571;SDS011;67214;47.454;18.966;2023-04-25T00:45:39;5.90;;;2.33;;
77571;SDS011;67214;47.454;18.966;2023-04-25T00:48:07;4.37;;;2.65;;
77571;SDS011;67214;47.454;18.966;2023-04-25T00:50:35;3.35;;;2.10;;
77571;SDS011;67214;47.454;18.966;2023-04-25T00:53:03;3.58;;;2.75;;
77571;SDS011;67214;47.454;18.966;2023-04-25T00:55:31;3.40;;;2.22;;
77571;SDS011;67214;47.454;18.966;2023-04-25T00:58:00;4.03;;;2.45;;
77571;SDS011;67214;47.454;18.966;2023-04-25T01:00:28;4.10;;;2.55;;
77571;SDS011;67214;47.454;18.966;2023-04-25T01:02:56;3.80;;;2.35;;
77571;SDS011;67214;47.454;18.966;2023-04-25T01:05:24;3.15;;;2.25;;
77571;SDS011;67214;47.454;18.966;2023-04-25T01:07:51;4.10;;;2.72;;
77571;SDS011;67214;47.454;18.966;2023-04-25T01:10:19;3.72;;;3.10;;
77571;SDS011;67214;47.454;18.966;2023-04-25T01:12:47;3.47;;;2.50;;
77571;SDS011;67214;47.454;18.966;2023-04-25T01:15:14;4.12;;;2.70;;
77571;SDS011;67214;47.454;18.966;2023-04-25T01:17:42;4.35;;;2.70;;
77571;SDS011;67214;47.454;18.966;2023-04-25T01:20:10;5.35;;;2.72;;
77571;SDS011;67214;47.454;18.966;2023-04-25T01:22:39;3.90;;;2.70;;
77571;SDS011;67214;47.454;18.966;2023-04-25T01:25:07;3.67;;;2.90;;
77571;SDS011;67214;47.454;18.966;2023-04-25T01:27:36;4.37;;;2.72;;
77571;SDS011;67214;47.454;18.966;2023-04-25T01:30:04;4.97;;;2.95;;
77571;SDS011;67214;47.454;18.966;2023-04-25T01:32:33;3.55;;;2.62;;
77571;SDS011;67214;47.454;18.966;2023-04-25T01:35:12;5.17;;;3.45;;
77571;SDS011;67214;47.454;18.966;2023-04-25T01:37:37;3.55;;;2.80;;
77571;SDS011;67214;47.454;18.966;2023-04-25T01:40:06;3.70;;;2.80;;
77571;SDS011;67214;47.454;18.966;2023-04-25T01:42:35;3.37;;;2.75;;
77571;SDS011;67214;47.454;18.966;2023-04-25T01:45:04;4.03;;;2.90;;
77571;SDS011;67214;47.454;18.966;2023-04-25T01:47:33;4.67;;;3.12;;
77571;SDS011;67214;47.454;18.966;2023-04-25T01:50:01;3.60;;;2.72;;
77571;SDS011;67214;47.454;18.966;2023-04-25T01:52:29;4.92;;;3.17;;
77571;SDS011;67214;47.454;18.966;2023-04-25T01:54:57;5.85;;;3.60;;
77571;SDS011;67214;47.454;18.966;2023-04-25T01:57:29;3.90;;;2.98;;
77571;SDS011;67214;47.454;18.966;2023-04-25T02:00:01;3.83;;;2.90;;
77571;SDS011;67214;47.454;18.966;2023-04-25T02:02:30;4.87;;;3.22;;
77571;SDS011;67214;47.454;18.966;2023-04-25T02:04:58;4.55;;;3.17;;
77571;SDS011;67214;47.454;18.966;2023-04-25T02:07:26;6.05;;;3.05;;
77571;SDS011;67214;47.454;18.966;2023-04-25T02:09:53;4.40;;;3.22;;
77571;SDS011;67214;47.454;18.966;2023-04-25T02:12:21;4.25;;;2.95;;
77571;SDS011;67214;47.454;18.966;2023-04-25T02:14:49;3.22;;;2.80;;
77571;SDS011;67214;47.454;18.966;2023-04-25T02:17:16;4.37;;;3.20;;
77571;SDS011;67214;47.454;18.966;2023-04-25T02:19:43;4.50;;;2.67;;
77571;SDS011;67214;47.454;18.966;2023-04-25T02:22:11;4.10;;;3.33;;
77571;SDS011;67214;47.454;18.966;2023-04-25T02:24:38;4.03;;;3.05;;
77571;SDS011;67214;47.454;18.966;2023-04-25T02:27:06;4.28;;;2.80;;
77571;SDS011;67214;47.454;18.966;2023-04-25T02:29:34;4.90;;;2.98;;
77571;SDS011;67214;47.454;18.966;2023-04-25T02:32:02;5.10;;;3.15;;
77571;SDS011;67214;47.454;18.966;2023-04-25T02:34:29;4.67;;;2.83;;
77571;SDS011;67214;47.454;18.966;2023-04-25T02:36:57;4.60;;;2.70;;
77571;SDS011;67214;47.454;18.966;2023-04-25T02:39:25;6.50;;;2.72;;
77571;SDS011;67214;47.454;18.966;2023-04-25T02:41:52;4.58;;;3.40;;
77571;SDS011;67214;47.454;18.966;2023-04-25T02:44:20;3.92;;;2.77;;
77571;SDS011;67214;47.454;18.966;2023-04-25T02:46:48;4.42;;;2.90;;
77571;SDS011;67214;47.454;18.966;2023-04-25T02:49:15;4.30;;;3.00;;
77571;SDS011;67214;47.454;18.966;2023-04-25T02:51:43;5.87;;;3.30;;
77571;SDS011;67214;47.454;18.966;2023-04-25T02:54:10;4.12;;;2.92;;
77571;SDS011;67214;47.454;18.966;2023-04-25T02:56:37;6.37;;;3.50;;
77571;SDS011;67214;47.454;18.966;2023-04-25T02:59:05;4.55;;;3.00;;
77571;SDS011;67214;47.454;18.966;2023-04-25T03:01:32;4.62;;;3.72;;
77571;SDS011;67214;47.454;18.966;2023-04-25T03:04:00;5.15;;;3.50;;
77571;SDS011;67214;47.454;18.966;2023-04-25T03:06:27;4.47;;;3.10;;
77571;SDS011;67214;47.454;18.966;2023-04-25T03:08:55;3.98;;;2.98;;
77571;SDS011;67214;47.454;18.966;2023-04-25T03:11:25;4.78;;;3.35;;
77571;SDS011;67214;47.454;18.966;2023-04-25T03:13:52;5.03;;;3.30;;
77571;SDS011;67214;47.454;18.966;2023-04-25T03:16:20;3.58;;;3.00;;
77571;SDS011;67214;47.454;18.966;2023-04-25T03:18:48;4.45;;;3.30;;
77571;SDS011;67214;47.454;18.966;2023-04-25T03:21:16;4.08;;;3.02;;
77571;SDS011;67214;47.454;18.966;2023-04-25T03:23:44;4.10;;;3.00;;
77571;SDS011;67214;47.454;18.966;2023-04-25T03:26:11;4.60;;;3.25;;
77571;SDS011;67214;47.454;18.966;2023-04-25T03:28:39;4.75;;;2.90;;
77571;SDS011;67214;47.454;18.966;2023-04-25T03:31:06;4.67;;;3.40;;
77571;SDS011;67214;47.454;18.966;2023-04-25T03:33:34;4.62;;;3.20;;
77571;SDS011;67214;47.454;18.966;2023-04-25T03:36:01;4.20;;;3.00;;
77571;SDS011;67214;47.454;18.966;2023-04-25T03:38:29;5.70;;;3.33;;
77571;SDS011;67214;47.454;18.966;2023-04-25T03:40:56;4.83;;;3.33;;
77571;SDS011;67214;47.454;18.966;2023-04-25T03:43:24;5.08;;;3.83;;
77571;SDS011;67214;47.454;18.966;2023-04-25T03:45:51;5.05;;;3.52;;
77571;SDS011;67214;47.454;18.966;2023-04-25T03:48:19;4.72;;;3.33;;
77571;SDS011;67214;47.454;18.966;2023-04-25T03:50:51;4.92;;;3.37;;
77571;SDS011;67214;47.454;18.966;2023-04-25T03:53:19;5.40;;;3.70;;
77571;SDS011;67214;47.454;18.966;2023-04-25T03:55:47;4.08;;;3.50;;
77571;SDS011;67214;47.454;18.966;2023-04-25T03:58:15;5.42;;;3.52;;
77571;SDS011;67214;47.454;18.966;2023-04-25T04:00:42;4.47;;;3.17;;
77571;SDS011;67214;47.454;18.966;2023-04-25T04:03:09;5.08;;;3.37;;
77571;SDS011;67214;47.454;18.966;2023-04-25T04:05:37;4.60;;;3.62;;
77571;SDS011;67214;47.454;18.966;2023-04-25T04:08:06;4.37;;;3.33;;
77571;SDS011;67214;47.454;18.966;2023-04-25T04:10:33;6.55;;;4.53;;
77571;SDS011;67214;47.454;18.966;2023-04-25T04:13:01;3.67;;;2.95;;
77571;SDS011;67214;47.454;18.966;2023-04-25T04:15:29;5.92;;;3.60;;
77571;SDS011;67214;47.454;18.966;2023-04-25T04:17:58;5.22;;;3.60;;
77571;SDS011;67214;47.454;18.966;2023-04-25T04:20:27;4.33;;;3.33;;
77571;SDS011;67214;47.454;18.966;2023-04-25T04:22:56;5.83;;;3.22;;
77571;SDS011;67214;47.454;18.966;2023-04-25T04:25:23;5.15;;;4.03;;
77571;SDS011;67214;47.454;18.966;2023-04-25T04:27:51;5.70;;;4.17;;
77571;SDS011;67214;47.454;18.966;2023-04-25T04:30:24;6.55;;;3.72;;
77571;SDS011;67214;47.454;18.966;2023-04-25T04:32:55;5.08;;;3.98;;
77571;SDS011;67214;47.454;18.966;2023-04-25T04:35:23;4.22;;;3.35;;
77571;SDS011;67214;47.454;18.966;2023-04-25T04:37:50;6.90;;;3.87;;
77571;SDS011;67214;47.454;18.966;2023-04-25T04:40:18;5.25;;;3.67;;
77571;SDS011;67214;47.454;18.966;2023-04-25T04:42:46;5.10;;;3.87;;
77571;SDS011;67214;47.454;18.966;2023-04-25T04:45:15;5.67;;;3.90;;
77571;SDS011;67214;47.454;18.966;2023-04-25T04:47:42;5.58;;;4.12;;
77571;SDS011;67214;47.454;18.966;2023-04-25T04:50:10;5.65;;;4.37;;
77571;SDS011;67214;47.454;18.966;2023-04-25T04:52:38;4.78;;;3.95;;
77571;SDS011;67214;47.454;18.966;2023-04-25T04:55:06;5.33;;;3.70;;
77571;SDS011;67214;47.454;18.966;2023-04-25T04:57:34;5.25;;;4.10;;
77571;SDS011;67214;47.454;18.966;2023-04-25T05:00:02;6.42;;;4.15;;
77571;SDS011;67214;47.454;18.966;2023-04-25T05:02:33;6.15;;;4.40;;
77571;SDS011;67214;47.454;18.966;2023-04-25T05:05:00;5.47;;;4.37;;
77571;SDS011;67214;47.454;18.966;2023-04-25T05:07:28;5.12;;;4.62;;
77571;SDS011;67214;47.454;18.966;2023-04-25T05:09:55;4.58;;;4.08;;
77571;SDS011;67214;47.454;18.966;2023-04-25T05:12:23;5.50;;;4.30;;
77571;SDS011;67214;47.454;18.966;2023-04-25T05:14:50;4.90;;;4.40;;
77571;SDS011;67214;47.454;18.966;2023-04-25T05:17:18;8.33;;;4.85;;
77571;SDS011;67214;47.454;18.966;2023-04-25T05:19:45;7.08;;;4.97;;
77571;SDS011;67214;47.454;18.966;2023-04-25T05:22:12;5.92;;;5.33;;
77571;SDS011;67214;47.454;18.966;2023-04-25T05:24:40;7.40;;;5.40;;
77571;SDS011;67214;47.454;18.966;2023-04-25T05:27:08;9.20;;;6.22;;
77571;SDS011;67214;47.454;18.966;2023-04-25T05:29:35;8.88;;;5.45;;
77571;SDS011;67214;47.454;18.966;2023-04-25T05:32:03;7.25;;;5.42;;
77571;SDS011;67214;47.454;18.966;2023-04-25T05:34:31;8.83;;;6.47;;
77571;SDS011;67214;47.454;18.966;2023-04-25T05:36:58;6.55;;;5.20;;
77571;SDS011;67214;47.454;18.966;2023-04-25T05:39:26;8.68;;;6.28;;
77571;SDS011;67214;47.454;18.966;2023-04-25T05:41:54;7.80;;;6.08;;
77571;SDS011;67214;47.454;18.966;2023-04-25T05:44:21;7.22;;;6.42;;
77571;SDS011;67214;47.454;18.966;2023-04-25T05:46:49;9.25;;;6.12;;
77571;SDS011;67214;47.454;18.966;2023-04-25T05:49:16;7.87;;;5.53;;
77571;SDS011;67214;47.454;18.966;2023-04-25T05:51:44;6.78;;;6.08;;
77571;SDS011;67214;47.454;18.966;2023-04-25T05:54:11;9.18;;;7.28;;
77571;SDS011;67214;47.454;18.966;2023-04-25T05:56:39;6.62;;;5.50;;
77571;SDS011;67214;47.454;18.966;2023-04-25T05:59:06;6.28;;;5.50;;
77571;SDS011;67214;47.454;18.966;2023-04-25T06:01:34;9.20;;;7.30;;
77571;SDS011;67214;47.454;18.966;2023-04-25T06:04:01;9.60;;;5.87;;
77571;SDS011;67214;47.454;18.966;2023-04-25T06:06:29;7.85;;;6.45;;
77571;SDS011;67214;47.454;18.966;2023-04-25T06:08:57;8.40;;;6.35;;
77571;SDS011;67214;47.454;18.966;2023-04-25T06:11:24;10.00;;;6.40;;
77571;SDS011;67214;47.454;18.966;2023-04-25T06:13:52;6.42;;;5.40;;
77571;SDS011;67214;47.454;18.966;2023-04-25T06:16:19;7.53;;;5.75;;
77571;SDS011;67214;47.454;18.966;2023-04-25T06:18:47;8.25;;;5.85;;
77571;SDS011;67214;47.454;18.966;2023-04-25T06:21:14;7.97;;;6.70;;
77571;SDS011;67214;47.454;18.966;2023-04-25T06:23:41;8.13;;;6.20;;
77571;SDS011;67214;47.454;18.966;2023-04-25T06:26:09;7.12;;;5.90;;
77571;SDS011;67214;47.454;18.966;2023-04-25T06:28:36;7.83;;;5.67;;
77571;SDS011;67214;47.454;18.966;2023-04-25T06:31:04;7.33;;;6.33;;
77571;SDS011;67214;47.454;18.966;2023-04-25T06:33:31;7.28;;;5.58;;
77571;SDS011;67214;47.454;18.966;2023-04-25T06:35:59;7.72;;;5.95;;
77571;SDS011;67214;47.454;18.966;2023-04-25T06:38:26;6.50;;;5.45;;
77571;SDS011;67214;47.454;18.966;2023-04-25T06:40:53;6.90;;;5.30;;
77571;SDS011;67214;47.454;18.966;2023-04-25T06:43:21;6.65;;;5.78;;
77571;SDS011;67214;47.454;18.966;2023-04-25T06:45:48;7.17;;;5.67;;
77571;SDS011;67214;47.454;18.966;2023-04-25T06:48:16;5.30;;;4.60;;
77571;SDS011;67214;47.454;18.966;2023-04-25T06:50:43;9.33;;;5.67;;
77571;SDS011;67214;47.454;18.966;2023-04-25T06:53:11;6.60;;;5.60;;
77571;SDS011;67214;47.454;18.966;2023-04-25T06:55:38;5.80;;;5.17;;
77571;SDS011;67214;47.454;18.966;2023-04-25T06:58:06;7.03;;;5.08;;
77571;SDS011;67214;47.454;18.966;2023-04-25T07:00:33;8.88;;;5.40;;
77571;SDS011;67214;47.454;18.966;2023-04-25T07:03:01;6.45;;;5.35;;
77571;SDS011;67214;47.454;18.966;2023-04-25T07:05:29;9.00;;;5.58;;
77571;SDS011;67214;47.454;18.966;2023-04-25T07:07:56;7.53;;;5.28;;
77571;SDS011;67214;47.454;18.966;2023-04-25T07:10:23;6.45;;;5.85;;
77571;SDS011;67214;47.454;18.966;2023-04-25T07:12:51;6.17;;;5.50;;
77571;SDS011;67214;47.454;18.966;2023-04-25T07:15:19;6.08;;;5.33;;
77571;SDS011;67214;47.454;18.966;2023-04-25T07:17:46;5.87;;;5.17;;
77571;SDS011;67214;47.454;18.966;2023-04-25T07:20:14;7.30;;;5.83;;
77571;SDS011;67214;47.454;18.966;2023-04-25T07:22:41;6.75;;;5.33;;
77571;SDS011;67214;47.454;18.966;2023-04-25T07:25:09;6.42;;;5.00;;
77571;SDS011;67214;47.454;18.966;2023-04-25T07:27:37;6.97;;;4.40;;
77571;SDS011;67214;47.454;18.966;2023-04-25T07:30:05;6.33;;;4.97;;
77571;SDS011;67214;47.454;18.966;2023-04-25T07:32:33;4.80;;;4.05;;
77571;SDS011;67214;47.454;18.966;2023-04-25T07:35:01;5.85;;;4.53;;
77571;SDS011;67214;47.454;18.966;2023-04-25T07:37:29;5.03;;;4.35;;
77571;SDS011;67214;47.454;18.966;2023-04-25T07:39:56;6.33;;;4.45;;
77571;SDS011;67214;47.454;18.966;2023-04-25T07:42:23;4.78;;;3.95;;
77571;SDS011;67214;47.454;18.966;2023-04-25T07:44:51;4.62;;;3.85;;
77571;SDS011;67214;47.454;18.966;2023-04-25T07:47:18;4.78;;;4.10;;
77571;SDS011;67214;47.454;18.966;2023-04-25T07:49:46;6.37;;;4.03;;
77571;SDS011;67214;47.454;18.966;2023-04-25T07:52:14;4.95;;;4.42;;
77571;SDS011;67214;47.454;18.966;2023-04-25T07:54:42;4.95;;;3.67;;
77571;SDS011;67214;47.454;18.966;2023-04-25T07:57:09;7.00;;;4.35;;
77571;SDS011;67214;47.454;18.966;2023-04-25T07:59:38;4.37;;;3.90;;
77571;SDS011;67214;47.454;18.966;2023-04-25T08:02:06;5.35;;;4.35;;
77571;SDS011;67214;47.454;18.966;2023-04-25T08:04:33;5.05;;;3.92;;
77571;SDS011;67214;47.454;18.966;2023-04-25T08:07:01;4.95;;;4.08;;
77571;SDS011;67214;47.454;18.966;2023-04-25T08:09:28;4.45;;;3.95;;
77571;SDS011;67214;47.454;18.966;2023-04-25T08:11:57;5.47;;;4.05;;
77571;SDS011;67214;47.454;18.966;2023-04-25T08:14:26;5.30;;;4.33;;
77571;SDS011;67214;47.454;18.966;2023-04-25T08:16:54;4.28;;;3.80;;
77571;SDS011;67214;47.454;18.966;2023-04-25T08:19:21;5.17;;;4.15;;
77571;SDS011;67214;47.454;18.966;2023-04-25T08:21:49;4.03;;;3.62;;
77571;SDS011;67214;47.454;18.966;2023-04-25T08:24:17;5.12;;;4.03;;
77571;SDS011;67214;47.454;18.966;2023-04-25T08:26:45;8.03;;;4.10;;
77571;SDS011;67214;47.454;18.966;2023-04-25T08:29:12;4.75;;;4.00;;
77571;SDS011;67214;47.454;18.966;2023-04-25T08:31:39;6.90;;;4.70;;
77571;SDS011;67214;47.454;18.966;2023-04-25T08:34:07;5.53;;;4.67;;
77571;SDS011;67214;47.454;18.966;2023-04-25T08:36:35;4.55;;;4.15;;
77571;SDS011;67214;47.454;18.966;2023-04-25T08:39:03;6.65;;;4.80;;
77571;SDS011;67214;47.454;18.966;2023-04-25T08:41:30;6.28;;;5.37;;
77571;SDS011;67214;47.454;18.966;2023-04-25T08:43:58;5.83;;;4.97;;
77571;SDS011;67214;47.454;18.966;2023-04-25T08:46:27;7.35;;;5.17;;
77571;SDS011;67214;47.454;18.966;2023-04-25T08:48:56;5.17;;;4.35;;
77571;SDS011;67214;47.454;18.966;2023-04-25T08:51:25;5.20;;;4.10;;
77571;SDS011;67214;47.454;18.966;2023-04-25T08:53:56;5.05;;;4.10;;
77571;SDS011;67214;47.454;18.966;2023-04-25T08:56:30;6.42;;;5.17;;
77571;SDS011;67214;47.454;18.966;2023-04-25T08:59:01;6.15;;;4.78;;
77571;SDS011;67214;47.454;18.966;2023-04-25T09:01:29;5.17;;;4.55;;
77571;SDS011;67214;47.454;18.966;2023-04-25T09:03:57;5.25;;;4.20;;
77571;SDS011;67214;47.454;18.966;2023-04-25T09:06:24;6.00;;;4.92;;
77571;SDS011;67214;47.454;18.966;2023-04-25T09:08:53;5.33;;;4.67;;
77571;SDS011;67214;47.454;18.966;2023-04-25T09:11:20;5.05;;;4.47;;
77571;SDS011;67214;47.454;18.966;2023-04-25T09:13:48;5.42;;;4.22;;
77571;SDS011;67214;47.454;18.966;2023-04-25T09:16:15;5.30;;;4.80;;
77571;SDS011;67214;47.454;18.966;2023-04-25T09:18:44;4.85;;;4.22;;
77571;SDS011;67214;47.454;18.966;2023-04-25T09:21:14;4.28;;;3.52;;
77571;SDS011;67214;47.454;18.966;2023-04-25T09:23:46;4.20;;;3.70;;
77571;SDS011;67214;47.454;18.966;2023-04-25T09:26:16;3.98;;;3.22;;
77571;SDS011;67214;47.454;18.966;2023-04-25T09:28:45;4.28;;;3.17;;
77571;SDS011;67214;47.454;18.966;2023-04-25T09:31:22;5.78;;;3.40;;
77571;SDS011;67214;47.454;18.966;2023-04-25T09:33:50;4.85;;;3.42;;
77571;SDS011;67214;47.454;18.966;2023-04-25T09:36:23;3.60;;;2.92;;
77571;SDS011;67214;47.454;18.966;2023-04-25T09:38:51;3.55;;;3.02;;
77571;SDS011;67214;47.454;18.966;2023-04-25T09:41:22;4.53;;;2.65;;
77571;SDS011;67214;47.454;18.966;2023-04-25T09:43:51;3.20;;;2.50;;
77571;SDS011;67214;47.454;18.966;2023-04-25T09:46:20;4.28;;;2.55;;
77571;SDS011;67214;47.454;18.966;2023-04-25T09:48:50;3.77;;;2.62;;
77571;SDS011;67214;47.454;18.966;2023-04-25T09:51:19;2.92;;;2.50;;
77571;SDS011;67214;47.454;18.966;2023-04-25T09:53:46;3.75;;;2.47;;
77571;SDS011;67214;47.454;18.966;2023-04-25T09:56:17;4.55;;;3.50;;
77571;SDS011;67214;47.454;18.966;2023-04-25T09:58:46;3.25;;;2.30;;
77571;SDS011;67214;47.454;18.966;2023-04-25T10:01:15;7.05;;;3.22;;
77571;SDS011;67214;47.454;18.966;2023-04-25T10:03:43;2.60;;;2.30;;
77571;SDS011;67214;47.454;18.966;2023-04-25T10:06:16;2.70;;;2.12;;
77571;SDS011;67214;47.454;18.966;2023-04-25T10:08:44;2.50;;;1.92;;
77571;SDS011;67214;47.454;18.966;2023-04-25T10:11:14;6.10;;;2.45;;
77571;SDS011;67214;47.454;18.966;2023-04-25T10:13:43;2.00;;;1.67;;
77571;SDS011;67214;47.454;18.966;2023-04-25T10:16:13;2.87;;;2.15;;
77571;SDS011;67214;47.454;18.966;2023-04-25T10:18:41;3.62;;;1.85;;
77571;SDS011;67214;47.454;18.966;2023-04-25T10:21:09;2.42;;;1.52;;
77571;SDS011;67214;47.454;18.966;2023-04-25T10:23:39;2.67;;;1.77;;
77571;SDS011;67214;47.454;18.966;2023-04-25T10:26:07;2.62;;;1.82;;
77571;SDS011;67214;47.454;18.966;2023-04-25T10:28:59;1.90;;;1.50;;
77571;SDS011;67214;47.454;18.966;2023-04-25T10:31:07;1.77;;;1.25;;
77571;SDS011;67214;47.454;18.966;2023-04-25T10:33:36;2.33;;;1.30;;
77571;SDS011;67214;47.454;18.966;2023-04-25T10:36:08;2.45;;;1.50;;
77571;SDS011;67214;47.454;18.966;2023-04-25T10:38:41;2.55;;;1.50;;
77571;SDS011;67214;47.454;18.966;2023-04-25T10:41:11;1.90;;;1.27;;
77571;SDS011;67214;47.454;18.966;2023-04-25T10:43:40;1.70;;;1.15;;
77571;SDS011;67214;47.454;18.966;2023-04-25T10:46:22;1.32;;;1.00;;
77571;SDS011;67214;47.454;18.966;2023-04-25T10:48:55;2.58;;;1.07;;
77571;SDS011;67214;47.454;18.966;2023-04-25T10:51:24;2.37;;;0.98;;
77571;SDS011;67214;47.454;18.966;2023-04-25T10:56:26;1.02;;;0.93;;
77571;SDS011;67214;47.454;18.966;2023-04-25T10:59:07;1.10;;;0.78;;
77571;SDS011;67214;47.454;18.966;2023-04-25T11:01:52;2.02;;;0.80;;
77571;SDS011;67214;47.454;18.966;2023-04-25T11:04:25;1.45;;;0.85;;
77571;SDS011;67214;47.454;18.966;2023-04-25T11:07:00;1.63;;;0.80;;
77571;SDS011;67214;47.454;18.966;2023-04-25T11:09:24;4.60;;;1.50;;
77571;SDS011;67214;47.454;18.966;2023-04-25T11:11:57;1.27;;;0.80;;
77571;SDS011;67214;47.454;18.966;2023-04-25T11:14:26;1.42;;;0.68;;
77571;SDS011;67214;47.454;18.966;2023-04-25T11:16:54;1.47;;;0.93;;
77571;SDS011;67214;47.454;18.966;2023-04-25T11:19:27;1.00;;;0.75;;
77571;SDS011;67214;47.454;18.966;2023-04-25T11:21:55;1.85;;;0.80;;
77571;SDS011;67214;47.454;18.966;2023-04-25T11:24:27;1.15;;;0.80;;
77571;SDS011;67214;47.454;18.966;2023-04-25T11:26:56;0.85;;;0.70;;
77571;SDS011;67214;47.454;18.966;2023-04-25T11:29:34;1.27;;;0.68;;
77571;SDS011;67214;47.454;18.966;2023-04-25T11:31:58;1.95;;;0.60;;
77571;SDS011;67214;47.454;18.966;2023-04-25T11:34:28;1.00;;;0.88;;
77571;SDS011;67214;47.454;18.966;2023-04-25T11:36:56;1.12;;;0.70;;
77571;SDS011;67214;47.454;18.966;2023-04-25T11:39:24;1.00;;;0.90;;
77571;SDS011;67214;47.454;18.966;2023-04-25T11:41:52;0.70;;;0.65;;
77571;SDS011;67214;47.454;18.966;2023-04-25T11:44:21;0.93;;;0.80;;
77571;SDS011;67214;47.454;18.966;2023-04-25T11:46:49;1.67;;;0.70;;
77571;SDS011;67214;47.454;18.966;2023-04-25T11:49:16;0.93;;;0.70;;
77571;SDS011;67214;47.454;18.966;2023-04-25T11:51:45;1.27;;;0.60;;
77571;SDS011;67214;47.454;18.966;2023-04-25T11:54:13;2.42;;;1.00;;
77571;SDS011;67214;47.454;18.966;2023-04-25T11:56:42;1.30;;;0.95;;
77571;SDS011;67214;47.454;18.966;2023-04-25T11:59:10;1.07;;;0.70;;
77571;SDS011;67214;47.454;18.966;2023-04-25T12:01:39;2.37;;;1.07;;
77571;SDS011;67214;47.454;18.966;2023-04-25T12:04:25;1.02;;;0.90;;
77571;SDS011;67214;47.454;18.966;2023-04-25T12:06:51;1.20;;;0.80;;
77571;SDS011;67214;47.454;18.966;2023-04-25T12:09:29;1.17;;;0.85;;
77571;SDS011;67214;47.454;18.966;2023-04-25T12:11:56;1.90;;;1.20;;
77571;SDS011;67214;47.454;18.966;2023-04-25T12:14:26;1.45;;;1.00;;
77571;SDS011;67214;47.454;18.966;2023-04-25T12:16:55;1.65;;;1.00;;
77571;SDS011;67214;47.454;18.966;2023-04-25T12:19:24;2.20;;;0.90;;
77571;SDS011;67214;47.454;18.966;2023-04-25T12:21:53;2.98;;;1.40;;
77571;SDS011;67214;47.454;18.966;2023-04-25T12:24:24;2.20;;;1.40;;
77571;SDS011;67214;47.454;18.966;2023-04-25T12:26:53;2.55;;;1.10;;
77571;SDS011;67214;47.454;18.966;2023-04-25T12:29:33;1.45;;;1.10;;
77571;SDS011;67214;47.454;18.966;2023-04-25T12:32:01;1.35;;;1.07;;
77571;SDS011;67214;47.454;18.966;2023-04-25T12:34:29;1.98;;;0.80;;
77571;SDS011;67214;47.454;18.966;2023-04-25T12:36:59;1.80;;;1.22;;
77571;SDS011;67214;47.454;18.966;2023-04-25T12:39:27;3.67;;;1.10;;
77571;SDS011;67214;47.454;18.966;2023-04-25T12:41:54;2.37;;;1.20;;
77571;SDS011;67214;47.454;18.966;2023-04-25T12:44:22;1.65;;;1.02;;
77571;SDS011;67214;47.454;18.966;2023-04-25T12:46:49;1.35;;;1.10;;
77571;SDS011;67214;47.454;18.966;2023-04-25T12:49:17;1.67;;;1.15;;
77571;SDS011;67214;47.454;18.966;2023-04-25T12:51:45;1.90;;;1.22;;
77571;SDS011;67214;47.454;18.966;2023-04-25T12:54:13;2.08;;;1.35;;
77571;SDS011;67214;47.454;18.966;2023-04-25T12:56:40;1.80;;;1.10;;
77571;SDS011;67214;47.454;18.966;2023-04-25T12:59:08;1.45;;;1.00;;
77571;SDS011;67214;47.454;18.966;2023-04-25T13:01:36;2.70;;;1.27;;
77571;SDS011;67214;47.454;18.966;2023-04-25T13:04:04;3.22;;;1.22;;
77571;SDS011;67214;47.454;18.966;2023-04-25T13:06:32;1.77;;;1.20;;
77571;SDS011;67214;47.454;18.966;2023-04-25T13:08:59;3.08;;;1.35;;
77571;SDS011;67214;47.454;18.966;2023-04-25T13:11:27;1.50;;;1.30;;
77571;SDS011;67214;47.454;18.966;2023-04-25T13:13:55;1.72;;;1.35;;
77571;SDS011;67214;47.454;18.966;2023-04-25T13:16:23;2.67;;;1.50;;
77571;SDS011;67214;47.454;18.966;2023-04-25T13:18:50;3.58;;;1.80;;
77571;SDS011;67214;47.454;18.966;2023-04-25T13:21:18;2.02;;;1.20;;
77571;SDS011;67214;47.454;18.966;2023-04-25T13:23:45;3.80;;;1.42;;
77571;SDS011;67214;47.454;18.966;2023-04-25T13:26:13;2.25;;;1.50;;
77571;SDS011;67214;47.454;18.966;2023-04-25T13:28:41;2.85;;;1.30;;
77571;SDS011;67214;47.454;18.966;2023-04-25T13:31:08;2.17;;;1.27;;
77571;SDS011;67214;47.454;18.966;2023-04-25T13:33:35;1.87;;;1.45;;
77571;SDS011;67214;47.454;18.966;2023-04-25T13:36:03;1.85;;;1.20;;
77571;SDS011;67214;47.454;18.966;2023-04-25T13:38:30;2.17;;;1.55;;
77571;SDS011;67214;47.454;18.966;2023-04-25T13:40:58;2.87;;;1.60;;
77571;SDS011;67214;47.454;18.966;2023-04-25T13:43:26;1.77;;;1.37;;
77571;SDS011;67214;47.454;18.966;2023-04-25T13:45:53;2.22;;;1.22;;
77571;SDS011;67214;47.454;18.966;2023-04-25T13:48:21;3.87;;;1.60;;
77571;SDS011;67214;47.454;18.966;2023-04-25T13:50:48;5.15;;;2.00;;
77571;SDS011;67214;47.454;18.966;2023-04-25T13:53:16;1.65;;;1.45;;
77571;SDS011;67214;47.454;18.966;2023-04-25T13:55:43;3.25;;;1.50;;
77571;SDS011;67214;47.454;18.966;2023-04-25T13:58:11;2.65;;;1.70;;
77571;SDS011;67214;47.454;18.966;2023-04-25T14:00:38;3.55;;;1.98;;
77571;SDS011;67214;47.454;18.966;2023-04-25T14:03:08;2.80;;;1.70;;
77571;SDS011;67214;47.454;18.966;2023-04-25T14:05:35;2.10;;;1.62;;
77571;SDS011;67214;47.454;18.966;2023-04-25T14:08:07;3.05;;;1.95;;
77571;SDS011;67214;47.454;18.966;2023-04-25T14:10:35;2.47;;;1.70;;
77571;SDS011;67214;47.454;18.966;2023-04-25T14:13:03;6.08;;;2.10;;
77571;SDS011;67214;47.454;18.966;2023-04-25T14:15:32;2.80;;;2.33;;
77571;SDS011;67214;47.454;18.966;2023-04-25T14:18:00;3.20;;;2.45;;
77571;SDS011;67214;47.454;18.966;2023-04-25T14:20:28;2.67;;;2.30;;
77571;SDS011;67214;47.454;18.966;2023-04-25T14:22:56;1.62;;;1.42;;
77571;SDS011;67214;47.454;18.966;2023-04-25T14:25:24;3.25;;;2.25;;
77571;SDS011;67214;47.454;18.966;2023-04-25T14:27:52;2.00;;;1.70;;
77571;SDS011;67214;47.454;18.966;2023-04-25T14:30:19;2.33;;;1.90;;
77571;SDS011;67214;47.454;18.966;2023-04-25T14:32:48;3.50;;;1.60;;
77571;SDS011;67214;47.454;18.966;2023-04-25T14:35:16;3.85;;;2.02;;
77571;SDS011;67214;47.454;18.966;2023-04-25T14:37:44;3.62;;;1.67;;
77571;SDS011;67214;47.454;18.966;2023-04-25T14:40:12;2.20;;;1.40;;
77571;SDS011;67214;47.454;18.966;2023-04-25T14:42:42;1.77;;;1.50;;